createdAt,value
2023-02-02T00:00:29.447Z,72.26
2023-02-02T00:03:32.279Z,73.39
2023-02-02T00:06:35.123Z,73.15
2023-02-02T00:09:37.984Z,73.34
2023-02-02T00:12:40.667Z,73.33
2023-02-02T00:15:43.429Z,73.78
2023-02-02T00:18:46.222Z,74.30
2023-02-02T00:21:49.298Z,74.35
2023-02-02T00:24:52.027Z,74.42
2023-02-02T00:27:54.991Z,74.59
2023-02-02T00:30:57.838Z,74.48
2023-02-02T00:34:00.855Z,74.62
2023-02-02T00:37:04.581Z,74.54
2023-02-02T00:40:07.891Z,74.44
2023-02-02T00:43:10.960Z,74.44
2023-02-02T00:46:18.869Z,73.62
2023-02-02T00:49:22.072Z,73.39
2023-02-02T00:52:25.087Z,73.26
2023-02-02T00:55:27.980Z,73.21
2023-02-02T00:58:30.800Z,73.72
2023-02-02T01:01:33.598Z,73.71
2023-02-02T01:04:36.512Z,74.31
2023-02-02T01:07:40.495Z,74.17
2023-02-02T01:10:43.170Z,74.07
2023-02-02T01:13:45.974Z,74.43
2023-02-02T01:16:48.956Z,74.55
2023-02-02T01:19:51.809Z,74.63
2023-02-02T01:22:54.809Z,74.53
2023-02-02T01:25:59.418Z,74.42
2023-02-02T01:29:02.169Z,74.40
2023-02-02T01:32:05.574Z,74.09
2023-02-02T01:35:10.348Z,73.36
2023-02-02T01:38:13.500Z,72.55
2023-02-02T01:41:22.734Z,72.36
2023-02-02T01:44:53.379Z,72.60
2023-02-02T01:47:59.992Z,72.69
2023-02-02T01:51:18.067Z,72.97
2023-02-02T01:54:29.873Z,72.83
2023-02-02T01:57:41.144Z,72.67
2023-02-02T02:00:46.940Z,72.99
2023-02-02T02:03:50.037Z,72.80
2023-02-02T02:06:53.925Z,72.62
2023-02-02T02:09:56.873Z,72.67
2023-02-02T02:12:59.942Z,72.59
2023-02-02T02:16:20.778Z,72.56
2023-02-02T02:19:28.372Z,72.22
2023-02-02T02:23:27.384Z,72.81
2023-02-02T02:27:03.231Z,73.91
2023-02-02T02:30:24.636Z,73.99
2023-02-02T02:33:54.453Z,72.99
2023-02-02T02:37:08.815Z,72.51
2023-02-02T02:40:22.274Z,71.90
2023-02-02T02:43:34.659Z,71.90
2023-02-02T02:46:38.791Z,72.68
2023-02-02T02:49:46.136Z,74.39
2023-02-02T02:52:52.514Z,73.75
2023-02-02T02:56:26.867Z,72.80
2023-02-02T02:59:48.131Z,72.92
2023-02-02T03:03:45.919Z,72.57
2023-02-02T03:06:55.320Z,72.52
2023-02-02T03:10:01.484Z,73.12
2023-02-02T03:13:09.768Z,73.31
2023-02-02T03:16:12.537Z,72.98
2023-02-02T03:19:15.238Z,72.95
2023-02-02T03:22:18.006Z,72.66
2023-02-02T03:25:20.682Z,72.61
2023-02-02T03:28:25.331Z,71.80
2023-02-02T03:31:29.301Z,72.20
2023-02-02T03:34:32.014Z,72.54
2023-02-02T03:37:35.243Z,72.17
2023-02-02T03:40:38.471Z,71.08
2023-02-02T03:43:41.295Z,70.99
2023-02-02T03:46:44.033Z,70.91
2023-02-02T03:49:46.832Z,70.84
2023-02-02T03:52:49.635Z,70.39
2023-02-02T03:55:52.397Z,70.20
2023-02-02T03:58:55.139Z,70.19
2023-02-02T04:01:58.189Z,68.88
2023-02-02T04:05:00.920Z,64.02
2023-02-02T04:08:03.707Z,61.95
2023-02-02T04:11:10.385Z,56.92
2023-02-02T04:14:13.170Z,56.41
2023-02-02T04:17:15.891Z,57.27
2023-02-02T04:20:18.887Z,57.49
2023-02-02T04:23:21.611Z,56.92
2023-02-02T04:26:27.473Z,56.18
2023-02-02T04:29:30.224Z,56.42
2023-02-02T04:32:32.983Z,61.20
2023-02-02T04:35:35.679Z,64.55
2023-02-02T04:38:38.443Z,66.61
2023-02-02T04:41:41.160Z,67.61
2023-02-02T04:44:45.899Z,68.81
2023-02-02T04:47:48.633Z,71.15
2023-02-02T04:50:51.387Z,72.53
2023-02-02T04:53:54.075Z,74.47
2023-02-02T04:56:56.850Z,75.08
2023-02-02T04:59:59.579Z,76.11
2023-02-02T05:03:02.350Z,76.76
2023-02-02T05:06:05.879Z,77.08
2023-02-02T05:09:08.786Z,78.26
2023-02-02T05:12:11.553Z,79.53
2023-02-02T05:15:14.273Z,80.46
2023-02-02T05:18:17.195Z,80.59
2023-02-02T05:21:20.760Z,81.05
2023-02-02T05:24:23.549Z,81.66
2023-02-02T05:27:26.319Z,82.48
2023-02-02T05:30:29.309Z,82.61
2023-02-02T05:33:32.502Z,83.03
2023-02-02T05:36:35.250Z,83.45
2023-02-02T05:39:38.051Z,83.19
2023-02-02T05:42:40.883Z,83.51
2023-02-02T05:45:43.720Z,83.23
2023-02-02T05:48:46.461Z,83.25
2023-02-02T05:51:53.998Z,83.28
2023-02-02T05:54:56.739Z,83.04
2023-02-02T05:57:59.539Z,83.54
2023-02-02T06:01:02.535Z,83.12
2023-02-02T06:04:05.363Z,82.38
2023-02-02T06:07:08.637Z,82.56
2023-02-02T06:10:11.911Z,82.70
2023-02-02T06:13:14.689Z,82.96
2023-02-02T06:16:17.467Z,82.46
2023-02-02T06:19:20.280Z,81.11
2023-02-02T06:22:23.071Z,80.70
2023-02-02T06:25:26.258Z,80.09
2023-02-02T06:28:31.514Z,80.21
2023-02-02T06:31:34.573Z,79.36
2023-02-02T06:34:37.453Z,79.21
2023-02-02T06:37:40.811Z,78.80
2023-02-02T06:40:43.626Z,78.51
2023-02-02T06:43:47.182Z,78.67
2023-02-02T06:46:49.977Z,78.49
2023-02-02T06:49:52.800Z,78.35
2023-02-02T06:52:57.808Z,78.01
2023-02-02T06:56:03.401Z,78.13
2023-02-02T06:59:06.256Z,77.46
2023-02-02T07:02:11.984Z,76.71
2023-02-02T07:05:14.851Z,76.18
2023-02-02T07:08:17.977Z,75.31
2023-02-02T07:11:21.046Z,75.40
2023-02-02T07:14:24.400Z,75.43
2023-02-02T07:17:27.149Z,75.34
2023-02-02T07:20:29.935Z,75.70
2023-02-02T07:23:34.161Z,75.39
2023-02-02T07:26:37.028Z,74.45
2023-02-02T07:29:40.073Z,74.50
2023-02-02T07:32:50.162Z,74.05
2023-02-02T07:35:53.168Z,73.60
2023-02-02T07:38:57.595Z,73.17
2023-02-02T07:42:00.425Z,73.02
2023-02-02T07:45:24.705Z,72.59
2023-02-02T07:48:31.168Z,71.91
2023-02-02T07:51:33.904Z,71.88
2023-02-02T07:54:36.941Z,71.36
2023-02-02T07:57:39.686Z,70.55
2023-02-02T08:00:42.699Z,70.06
2023-02-02T08:03:45.764Z,69.32
2023-02-02T08:06:48.718Z,69.51
2023-02-02T08:09:52.048Z,68.04
2023-02-02T08:12:54.908Z,67.71
2023-02-02T08:15:58.632Z,68.42
2023-02-02T08:19:01.582Z,70.04
2023-02-02T08:22:04.445Z,70.34
2023-02-02T08:25:08.005Z,71.52
2023-02-02T08:28:10.800Z,72.32
2023-02-02T08:31:19.035Z,70.48
2023-02-02T08:34:21.928Z,69.67
2023-02-02T08:37:24.740Z,68.76
2023-02-02T08:40:27.480Z,68.74
2023-02-02T08:43:30.488Z,68.30
2023-02-02T08:46:33.303Z,68.34
2023-02-02T08:49:36.154Z,68.79
2023-02-02T08:52:38.897Z,68.94
2023-02-02T08:55:41.754Z,69.70
2023-02-02T08:58:46.901Z,69.95
2023-02-02T09:01:49.690Z,70.20
2023-02-02T09:04:52.606Z,69.61
2023-02-02T09:07:55.385Z,69.89
2023-02-02T09:11:10.142Z,69.43
2023-02-02T09:14:14.230Z,69.35
2023-02-02T09:17:16.898Z,70.12
2023-02-02T09:20:20.620Z,69.97
2023-02-02T09:23:23.488Z,70.07
2023-02-02T09:26:29.956Z,69.52
2023-02-02T09:29:32.779Z,69.15
2023-02-02T09:32:35.541Z,69.04
2023-02-02T09:35:38.320Z,69.24
2023-02-02T09:38:42.116Z,69.30
2023-02-02T09:41:56.083Z,69.08
2023-02-02T09:45:22.793Z,68.48
2023-02-02T09:48:29.285Z,68.39
2023-02-02T09:51:41.615Z,68.18
2023-02-02T09:54:48.773Z,67.26
2023-02-02T09:58:13.263Z,65.89
2023-02-02T10:01:20.801Z,65.87
2023-02-02T10:04:34.194Z,65.41
2023-02-02T10:07:41.631Z,64.44
2023-02-02T10:10:47.190Z,61.97
2023-02-02T10:13:53.055Z,57.41
2023-02-02T10:17:03.410Z,54.12
2023-02-02T10:20:21.375Z,54.12
2023-02-02T10:23:44.661Z,53.43
2023-02-02T10:26:50.967Z,51.55
2023-02-02T10:30:01.961Z,52.97
2023-02-02T10:33:16.690Z,53.34
2023-02-02T10:36:34.821Z,54.24
2023-02-02T10:40:09.230Z,53.88
2023-02-02T10:43:46.605Z,54.58
2023-02-02T10:46:55.867Z,53.26
2023-02-02T10:50:07.578Z,53.29
2023-02-02T10:53:14.465Z,53.00
2023-02-02T10:56:22.678Z,53.75
2023-02-02T10:59:32.580Z,54.13
2023-02-02T11:02:35.501Z,52.15
2023-02-02T11:05:57.009Z,52.59
2023-02-02T11:09:01.349Z,54.16
2023-02-02T11:12:28.270Z,52.76
2023-02-02T11:15:31.476Z,52.77
2023-02-02T11:18:34.232Z,52.32
2023-02-02T11:21:38.729Z,51.72
2023-02-02T11:24:47.499Z,50.73
2023-02-02T11:27:50.272Z,52.45
2023-02-02T11:30:53.893Z,50.81
2023-02-02T11:34:20.768Z,51.53
2023-02-02T11:37:25.059Z,49.84
2023-02-02T11:40:30.766Z,51.00
2023-02-02T11:43:52.864Z,50.58
2023-02-02T11:46:57.496Z,52.55
2023-02-02T11:50:02.589Z,51.79
2023-02-02T11:53:06.986Z,52.56
2023-02-02T11:56:18.930Z,52.68
2023-02-02T11:59:42.120Z,52.14
2023-02-02T12:02:49.559Z,52.09
2023-02-02T12:05:52.571Z,53.19
2023-02-02T12:08:59.186Z,51.16
2023-02-02T12:12:04.795Z,52.57
2023-02-02T12:15:19.961Z,53.14
2023-02-02T12:18:48.087Z,51.71
2023-02-02T12:22:19.738Z,51.33
2023-02-02T12:26:04.555Z,53.14
2023-02-02T12:29:28.827Z,51.86
2023-02-02T12:33:01.941Z,51.66
2023-02-02T12:36:17.447Z,51.40
2023-02-02T12:39:22.674Z,50.13
2023-02-02T12:42:57.802Z,52.43
2023-02-02T12:46:11.715Z,50.09
2023-02-02T12:49:32.794Z,50.75
2023-02-02T12:52:47.540Z,50.59
2023-02-02T12:56:09.725Z,49.97
2023-02-02T12:59:24.283Z,50.52
2023-02-02T13:02:40.555Z,50.68
2023-02-02T13:06:01.250Z,50.92
2023-02-02T13:09:12.598Z,50.75
2023-02-02T13:12:20.114Z,49.97
2023-02-02T13:15:34.239Z,51.68
2023-02-02T13:19:01.327Z,51.76
2023-02-02T13:22:10.700Z,50.44
2023-02-02T13:25:31.011Z,50.92
2023-02-02T13:28:56.803Z,51.61
2023-02-02T13:32:25.146Z,50.98
2023-02-02T13:35:50.125Z,52.05
2023-02-02T13:39:01.628Z,53.62
2023-02-02T13:42:17.045Z,53.00
2023-02-02T13:45:44.406Z,53.33
2023-02-02T13:49:35.857Z,53.75
2023-02-02T13:53:12.382Z,53.16
2023-02-02T13:56:49.400Z,53.31
2023-02-02T14:00:13.171Z,53.74
2023-02-02T14:03:38.527Z,54.63
2023-02-02T14:06:57.391Z,54.64
2023-02-02T14:10:00.301Z,55.25
2023-02-02T14:13:45.471Z,54.90
2023-02-02T14:16:50.256Z,55.53
2023-02-02T14:19:56.315Z,54.88
2023-02-02T14:22:58.972Z,55.46
2023-02-02T14:26:07.015Z,55.58
2023-02-02T14:29:35.034Z,55.51
2023-02-02T14:32:42.930Z,54.73
2023-02-02T14:35:45.540Z,54.88
2023-02-02T14:38:55.892Z,55.41
2023-02-02T14:42:45.187Z,55.14
2023-02-02T14:45:50.164Z,56.22
2023-02-02T14:48:57.323Z,56.14
2023-02-02T14:52:03.052Z,55.96
2023-02-02T14:55:06.371Z,56.19
2023-02-02T14:58:09.898Z,56.59
2023-02-02T15:01:25.326Z,56.58
2023-02-02T15:04:29.384Z,57.14
2023-02-02T15:07:32.027Z,57.12
2023-02-02T15:10:53.740Z,57.57
2023-02-02T15:14:07.118Z,57.87
2023-02-02T15:17:42.061Z,57.63
2023-02-02T15:20:50.155Z,58.36
2023-02-02T15:23:53.309Z,58.49
2023-02-02T15:27:00.344Z,58.73
2023-02-02T15:30:07.722Z,59.53
2023-02-02T15:33:31.312Z,58.99
2023-02-02T15:36:38.095Z,58.74
2023-02-02T15:39:46.088Z,58.99
2023-02-02T15:42:57.511Z,59.09
2023-02-02T15:46:07.786Z,58.07
2023-02-02T15:49:33.182Z,58.69
2023-02-02T15:52:47.136Z,58.32
2023-02-02T15:55:50.755Z,59.01
2023-02-02T15:58:55.769Z,59.63
2023-02-02T16:02:26.529Z,59.42
2023-02-02T16:05:31.980Z,59.10
2023-02-02T16:08:37.937Z,59.29
2023-02-02T16:11:44.914Z,58.68
2023-02-02T16:14:51.695Z,58.65
2023-02-02T16:18:02.603Z,59.03
2023-02-02T16:21:14.887Z,59.10
2023-02-02T16:24:44.070Z,59.34
2023-02-02T16:27:48.853Z,58.85
2023-02-02T16:30:53.027Z,59.42
2023-02-02T16:33:57.039Z,59.43
2023-02-02T16:37:32.334Z,59.38
2023-02-02T16:40:35.482Z,59.36
2023-02-02T16:43:40.894Z,59.79
2023-02-02T16:46:49.549Z,59.68
2023-02-02T16:50:12.983Z,60.39
2023-02-02T16:53:24.253Z,60.53
2023-02-02T16:56:40.327Z,60.32
2023-02-02T16:59:48.584Z,61.14
2023-02-02T17:03:07.862Z,61.74
2023-02-02T17:06:10.737Z,61.97
2023-02-02T17:09:34.588Z,60.87
2023-02-02T17:12:38.139Z,62.09
2023-02-02T17:15:41.006Z,60.41
2023-02-02T17:18:44.034Z,60.81
2023-02-02T17:21:49.537Z,61.29
2023-02-02T17:24:53.215Z,62.14
2023-02-02T17:27:58.652Z,61.85
2023-02-02T17:31:08.572Z,61.90
2023-02-02T17:34:16.148Z,62.44
2023-02-02T17:37:19.018Z,62.84
2023-02-02T17:40:24.042Z,63.43
2023-02-02T17:43:27.704Z,63.23
2023-02-02T17:46:33.341Z,63.06
2023-02-02T17:49:36.158Z,62.94
2023-02-02T17:52:39.360Z,62.38
2023-02-02T17:55:44.150Z,62.65
2023-02-02T17:58:47.040Z,61.99
2023-02-02T18:01:50.697Z,61.79
2023-02-02T18:04:53.480Z,61.59
2023-02-02T18:07:56.485Z,61.69
2023-02-02T18:11:00.267Z,61.23
2023-02-02T18:14:03.098Z,61.60
2023-02-02T18:17:08.347Z,61.82
2023-02-02T18:20:15.380Z,61.92
2023-02-02T18:23:18.966Z,61.93
2023-02-02T18:26:23.064Z,62.31
2023-02-02T18:29:26.042Z,62.32
2023-02-02T18:32:28.804Z,62.36
2023-02-02T18:35:31.771Z,62.81
2023-02-02T18:38:34.912Z,62.85
2023-02-02T18:41:37.603Z,63.17
2023-02-02T18:44:40.311Z,63.04
2023-02-02T18:47:43.281Z,63.22
2023-02-02T18:50:46.157Z,63.48
2023-02-02T18:53:49.542Z,64.10
2023-02-02T18:56:52.571Z,64.30
2023-02-02T18:59:55.503Z,63.36
2023-02-02T19:02:58.451Z,63.76
2023-02-02T19:06:20.481Z,64.43
2023-02-02T19:09:24.874Z,64.15
2023-02-02T19:12:29.445Z,64.15
2023-02-02T19:15:42.913Z,64.97
2023-02-02T19:18:47.155Z,65.38
2023-02-02T19:22:02.004Z,66.00
2023-02-02T19:25:11.546Z,66.09
2023-02-02T19:28:23.307Z,66.35
2023-02-02T19:31:26.341Z,66.11
2023-02-02T19:34:33.347Z,65.73
2023-02-02T19:37:40.086Z,65.94
2023-02-02T19:40:44.157Z,65.71
2023-02-02T19:43:48.816Z,66.37
2023-02-02T19:46:52.999Z,66.29
2023-02-02T19:49:56.781Z,66.03
2023-02-02T19:52:59.918Z,66.08
2023-02-02T19:56:22.207Z,66.26
2023-02-02T19:59:30.387Z,66.49
2023-02-02T20:03:01.551Z,66.45
2023-02-02T20:06:05.065Z,66.82
2023-02-02T20:09:16.928Z,67.05
2023-02-02T20:12:28.631Z,67.00
2023-02-02T20:15:32.704Z,67.04
2023-02-02T20:18:48.736Z,67.31
2023-02-02T20:21:53.693Z,66.93
2023-02-02T20:24:58.024Z,66.62
2023-02-02T20:28:08.383Z,66.93
2023-02-02T20:31:19.884Z,67.08
2023-02-02T20:34:29.566Z,67.57
2023-02-02T20:37:36.089Z,67.57
2023-02-02T20:40:39.031Z,68.25
2023-02-02T20:43:42.008Z,68.24
2023-02-02T20:46:45.057Z,68.31
2023-02-02T20:49:47.968Z,68.42
2023-02-02T20:52:52.016Z,68.58
2023-02-02T20:55:58.312Z,68.37
2023-02-02T20:59:01.416Z,68.40
2023-02-02T21:02:05.477Z,68.54
2023-02-02T21:05:08.428Z,68.33
2023-02-02T21:08:11.297Z,68.18
2023-02-02T21:11:14.219Z,68.49
2023-02-02T21:14:17.308Z,68.67
2023-02-02T21:17:20.319Z,69.13
2023-02-02T21:20:23.038Z,68.74
2023-02-02T21:23:25.824Z,68.66
2023-02-02T21:26:30.906Z,68.55
2023-02-02T21:29:33.936Z,68.79
2023-02-02T21:32:37.030Z,68.49
2023-02-02T21:35:39.834Z,69.04
2023-02-02T21:38:42.558Z,68.93
2023-02-02T21:41:46.146Z,68.37
2023-02-02T21:44:56.452Z,68.57
2023-02-02T21:48:02.893Z,68.03
2023-02-02T21:51:24.220Z,68.04
2023-02-02T21:54:36.794Z,67.99
2023-02-02T21:57:39.581Z,68.11
2023-02-02T22:00:43.847Z,68.23
2023-02-02T22:03:49.716Z,68.19
2023-02-02T22:06:54.700Z,67.71
2023-02-02T22:09:57.824Z,68.19
2023-02-02T22:13:01.597Z,67.72
2023-02-02T22:16:10.619Z,67.63
2023-02-02T22:19:31.570Z,67.84
2023-02-02T22:22:36.681Z,68.15
2023-02-02T22:25:40.879Z,68.66
2023-02-02T22:28:43.650Z,68.49
2023-02-02T22:31:46.790Z,68.29
2023-02-02T22:34:49.589Z,68.40
2023-02-02T22:37:52.333Z,68.67
2023-02-02T22:40:55.180Z,68.55
2023-02-02T22:43:57.941Z,68.99
2023-02-02T22:47:00.628Z,68.86
2023-02-02T22:50:03.870Z,69.02
2023-02-02T22:53:06.776Z,69.02
2023-02-02T22:56:09.607Z,69.12
2023-02-02T22:59:12.428Z,69.00
2023-02-02T23:02:15.235Z,69.03
2023-02-02T23:05:19.875Z,69.14
2023-02-02T23:08:22.621Z,69.57
2023-02-02T23:11:25.434Z,69.66
2023-02-02T23:14:28.141Z,70.33
2023-02-02T23:17:31.960Z,70.09
2023-02-02T23:20:34.783Z,69.64
2023-02-02T23:23:37.549Z,69.63
2023-02-02T23:26:40.255Z,69.03
2023-02-02T23:29:43.184Z,68.92
2023-02-02T23:32:50.070Z,69.36
2023-02-02T23:35:52.796Z,69.87
2023-02-02T23:38:55.556Z,69.72
2023-02-02T23:41:58.394Z,69.46
2023-02-02T23:45:01.268Z,69.56
2023-02-02T23:48:04.156Z,69.57
2023-02-02T23:51:06.997Z,68.82
2023-02-02T23:54:13.968Z,69.01
2023-02-02T23:57:16.771Z,69.15
